GLD1028 SBGO-SBRP
Flight info
| Callsign | GLD1028 |
|---|---|
| Flight time | 0h 57m |
| Altitude | 32000 |
| Route | DETI2A ESBOD DCT EGDIN DCT |
| Aircraft | B738/M-SDFGIRY/S |
Departure
| Time | 2026-05-04 19:44 |
|---|---|
| Airport | Santa Genoveva International Airport (SBGO) |
Arrival
| Time | 2026-05-04 20:41 |
|---|---|
| Airport | Leite Lopes Airport (SBRP) |
| Time | Latitude | Longitude | Altitude | Speed | Heading |
|---|---|---|---|---|---|
| 2026-05-04 19:27 | -16.63007 | -49.21512 | 2461 ft | 0 kts | 57° |
| 2026-05-04 19:31 | -16.63010 | -49.21517 | 2464 ft | 1 kts | 56° |
| 2026-05-04 19:31 | -16.63015 | -49.21526 | 2463 ft | 1 kts | 56° |
| 2026-05-04 19:32 | -16.63021 | -49.21534 | 2467 ft | 1 kts | 56° |
| 2026-05-04 19:32 | -16.63026 | -49.21542 | 2463 ft | 1 kts | 56° |
| 2026-05-04 19:32 | -16.63031 | -49.21550 | 2462 ft | 1 kts | 56° |
| 2026-05-04 19:32 | -16.63035 | -49.21558 | 2461 ft | 1 kts | 85° |
| 2026-05-04 19:33 | -16.63037 | -49.21567 | 2461 ft | 1 kts | 76° |
| 2026-05-04 19:33 | -16.63039 | -49.21573 | 2464 ft | 1 kts | 112° |
| 2026-05-04 19:33 | -16.63040 | -49.21575 | 2461 ft | 0 kts | 143° |
| 2026-05-04 19:34 | -16.63040 | -49.21574 | 2461 ft | 0 kts | 143° |
| 2026-05-04 19:35 | -16.63053 | -49.21564 | 2463 ft | 6 kts | 141° |
| 2026-05-04 19:35 | -16.63093 | -49.21528 | 2463 ft | 8 kts | 137° |
| 2026-05-04 19:35 | -16.63128 | -49.21485 | 2465 ft | 8 kts | 126° |
| 2026-05-04 19:35 | -16.63156 | -49.21439 | 2463 ft | 7 kts | 121° |
| 2026-05-04 19:36 | -16.63182 | -49.21395 | 2464 ft | 7 kts | 121° |
| 2026-05-04 19:36 | -16.63207 | -49.21351 | 2461 ft | 7 kts | 120° |
| 2026-05-04 19:36 | -16.63231 | -49.21308 | 2462 ft | 7 kts | 120° |
| 2026-05-04 19:36 | -16.63254 | -49.21265 | 2462 ft | 7 kts | 119° |
| 2026-05-04 19:37 | -16.63277 | -49.21223 | 2465 ft | 7 kts | 119° |
| 2026-05-04 19:37 | -16.63299 | -49.21182 | 2464 ft | 6 kts | 119° |
| 2026-05-04 19:37 | -16.63320 | -49.21142 | 2461 ft | 6 kts | 118° |
| 2026-05-04 19:37 | -16.63342 | -49.21102 | 2464 ft | 6 kts | 123° |
| 2026-05-04 19:38 | -16.63365 | -49.21065 | 2461 ft | 6 kts | 123° |
| 2026-05-04 19:38 | -16.63394 | -49.21036 | 2464 ft | 6 kts | 155° |
| 2026-05-04 19:38 | -16.63434 | -49.21022 | 2461 ft | 6 kts | 165° |
| 2026-05-04 19:38 | -16.63473 | -49.21011 | 2463 ft | 6 kts | 165° |
| 2026-05-04 19:39 | -16.63513 | -49.21000 | 2464 ft | 6 kts | 166° |
| 2026-05-04 19:39 | -16.63552 | -49.20994 | 2465 ft | 6 kts | 179° |
| 2026-05-04 19:39 | -16.63589 | -49.21009 | 2463 ft | 6 kts | 205° |
| 2026-05-04 19:39 | -16.63624 | -49.21027 | 2461 ft | 6 kts | 211° |
| 2026-05-04 19:40 | -16.63661 | -49.21051 | 2461 ft | 9 kts | 212° |
| 2026-05-04 19:40 | -16.63673 | -49.21059 | 2465 ft | 0 kts | 212° |
| 2026-05-04 19:41 | -16.63697 | -49.21072 | 2462 ft | 7 kts | 208° |
| 2026-05-04 19:41 | -16.63745 | -49.21092 | 2461 ft | 7 kts | 195° |
| 2026-05-04 19:41 | -16.63756 | -49.21110 | 2464 ft | 0 kts | 293° |
| 2026-05-04 19:42 | -16.63752 | -49.21118 | 2463 ft | 0 kts | 301° |
| 2026-05-04 19:43 | -16.63721 | -49.21175 | 2465 ft | 36 kts | 298° |
| 2026-05-04 19:43 | -16.63471 | -49.21621 | 2461 ft | 106 kts | 300° |
| 2026-05-04 19:43 | -16.62991 | -49.22477 | 2456 ft | 164 kts | 300° |
| 2026-05-04 19:43 | -16.62404 | -49.23633 | 2811 ft | 184 kts | 295° |
| 2026-05-04 19:44 | -16.61805 | -49.24760 | 3617 ft | 186 kts | 297° |
| 2026-05-04 19:44 | -16.61141 | -49.25959 | 4293 ft | 187 kts | 304° |
| 2026-05-04 19:44 | -16.60394 | -49.27207 | 4689 ft | 218 kts | 304° |
| 2026-05-04 19:44 | -16.59557 | -49.28632 | 4879 ft | 244 kts | 303° |
| 2026-05-04 19:45 | -16.58632 | -49.30235 | 5130 ft | 270 kts | 302° |
| 2026-05-04 19:45 | -16.57667 | -49.31938 | 5814 ft | 275 kts | 302° |
| 2026-05-04 19:45 | -16.56715 | -49.33638 | 6817 ft | 268 kts | 300° |
| 2026-05-04 19:45 | -16.56196 | -49.35500 | 7507 ft | 274 kts | 272° |
| 2026-05-04 19:46 | -16.56601 | -49.37399 | 7952 ft | 278 kts | 244° |
| 2026-05-04 19:46 | -16.57790 | -49.38971 | 8043 ft | 278 kts | 217° |
| 2026-05-04 19:46 | -16.59537 | -49.39804 | 8081 ft | 281 kts | 189° |
| 2026-05-04 19:46 | -16.61484 | -49.39790 | 8083 ft | 281 kts | 167° |
| 2026-05-04 19:47 | -16.63362 | -49.39261 | 8088 ft | 280 kts | 162° |
| 2026-05-04 19:47 | -16.65225 | -49.38655 | 8086 ft | 281 kts | 162° |
| 2026-05-04 19:47 | -16.67091 | -49.38041 | 8079 ft | 281 kts | 161° |
| 2026-05-04 19:47 | -16.68936 | -49.37442 | 8076 ft | 282 kts | 162° |
| 2026-05-04 19:48 | -16.70812 | -49.36841 | 8077 ft | 282 kts | 162° |
| 2026-05-04 19:48 | -16.72688 | -49.36245 | 8064 ft | 281 kts | 162° |
| 2026-05-04 19:48 | -16.74556 | -49.35657 | 8061 ft | 280 kts | 162° |
| 2026-05-04 19:48 | -16.76424 | -49.35071 | 8070 ft | 280 kts | 162° |
| 2026-05-04 19:49 | -16.78286 | -49.34489 | 8067 ft | 279 kts | 162° |
| 2026-05-04 19:49 | -16.80147 | -49.33906 | 8066 ft | 279 kts | 162° |
| 2026-05-04 19:49 | -16.81989 | -49.33247 | 8069 ft | 282 kts | 155° |
| 2026-05-04 19:49 | -16.83809 | -49.32342 | 8434 ft | 294 kts | 152° |
| 2026-05-04 19:50 | -16.85611 | -49.31382 | 9246 ft | 296 kts | 152° |
| 2026-05-04 19:50 | -16.87452 | -49.30396 | 10064 ft | 299 kts | 152° |
| 2026-05-04 19:50 | -16.89334 | -49.29397 | 10514 ft | 313 kts | 152° |
| 2026-05-04 19:50 | -16.91359 | -49.28330 | 10692 ft | 337 kts | 153° |
| 2026-05-04 19:51 | -16.93500 | -49.27210 | 11129 ft | 350 kts | 153° |
| 2026-05-04 19:51 | -16.95691 | -49.26070 | 11802 ft | 352 kts | 153° |
| 2026-05-04 19:51 | -16.97885 | -49.24932 | 12553 ft | 353 kts | 153° |
| 2026-05-04 19:51 | -17.00099 | -49.23786 | 13216 ft | 357 kts | 153° |
| 2026-05-04 19:52 | -17.02305 | -49.22644 | 13831 ft | 360 kts | 153° |
| 2026-05-04 19:52 | -17.04563 | -49.21477 | 14383 ft | 364 kts | 153° |
| 2026-05-04 19:52 | -17.06841 | -49.20298 | 14921 ft | 367 kts | 154° |
| 2026-05-04 19:52 | -17.09141 | -49.19108 | 15442 ft | 371 kts | 154° |
| 2026-05-04 19:53 | -17.11469 | -49.17903 | 15956 ft | 375 kts | 154° |
| 2026-05-04 19:53 | -17.13821 | -49.16686 | 16498 ft | 379 kts | 154° |
| 2026-05-04 19:53 | -17.16196 | -49.15456 | 17015 ft | 383 kts | 155° |
| 2026-05-04 19:53 | -17.18595 | -49.14213 | 17531 ft | 387 kts | 155° |
| 2026-05-04 19:54 | -17.21022 | -49.12954 | 18066 ft | 390 kts | 154° |
| 2026-05-04 19:54 | -17.23419 | -49.11711 | 18570 ft | 392 kts | 154° |
| 2026-05-04 19:54 | -17.25879 | -49.10436 | 19073 ft | 394 kts | 155° |
| 2026-05-04 19:54 | -17.28336 | -49.09161 | 19559 ft | 395 kts | 155° |
| 2026-05-04 19:55 | -17.30833 | -49.07940 | 20045 ft | 397 kts | 160° |
| 2026-05-04 19:55 | -17.33441 | -49.06983 | 20511 ft | 398 kts | 164° |
| 2026-05-04 19:55 | -17.36104 | -49.06155 | 20993 ft | 400 kts | 166° |
| 2026-05-04 19:55 | -17.38787 | -49.05365 | 21482 ft | 401 kts | 166° |
| 2026-05-04 19:56 | -17.41483 | -49.04572 | 21945 ft | 403 kts | 166° |
| 2026-05-04 19:56 | -17.44152 | -49.03771 | 22387 ft | 405 kts | 166° |
| 2026-05-04 19:56 | -17.46858 | -49.02942 | 22844 ft | 407 kts | 165° |
| 2026-05-04 19:56 | -17.49581 | -49.02095 | 23276 ft | 409 kts | 165° |
| 2026-05-04 19:57 | -17.52316 | -49.01233 | 23678 ft | 411 kts | 165° |
| 2026-05-04 19:57 | -17.55066 | -49.00361 | 24025 ft | 414 kts | 165° |
| 2026-05-04 19:57 | -17.57830 | -48.99481 | 24346 ft | 416 kts | 165° |
| 2026-05-04 19:57 | -17.60607 | -48.98595 | 24717 ft | 418 kts | 166° |
| 2026-05-04 19:58 | -17.63395 | -48.97705 | 25061 ft | 420 kts | 166° |
| 2026-05-04 19:58 | -17.66199 | -48.96809 | 25376 ft | 423 kts | 166° |
| 2026-05-04 19:58 | -17.68984 | -48.95920 | 25690 ft | 425 kts | 166° |
| 2026-05-04 19:58 | -17.71815 | -48.95015 | 26013 ft | 427 kts | 166° |
| 2026-05-04 19:59 | -17.74675 | -48.94101 | 26341 ft | 430 kts | 166° |
| 2026-05-04 19:59 | -17.77540 | -48.93185 | 26653 ft | 432 kts | 166° |
| 2026-05-04 19:59 | -17.80420 | -48.92264 | 26967 ft | 435 kts | 166° |
| 2026-05-04 19:59 | -17.83319 | -48.91337 | 27285 ft | 437 kts | 167° |
| 2026-05-04 20:00 | -17.86232 | -48.90405 | 27610 ft | 438 kts | 167° |
| 2026-05-04 20:00 | -17.89157 | -48.89469 | 27918 ft | 440 kts | 167° |
| 2026-05-04 20:00 | -17.92056 | -48.88541 | 28202 ft | 443 kts | 167° |
| 2026-05-04 20:00 | -17.95004 | -48.87596 | 28571 ft | 443 kts | 167° |
| 2026-05-04 20:01 | -17.97946 | -48.86653 | 29008 ft | 441 kts | 167° |
| 2026-05-04 20:01 | -18.00878 | -48.85711 | 29448 ft | 440 kts | 167° |
| 2026-05-04 20:01 | -18.03805 | -48.84771 | 29862 ft | 440 kts | 167° |
| 2026-05-04 20:01 | -18.06732 | -48.83833 | 30236 ft | 440 kts | 167° |
| 2026-05-04 20:02 | -18.09648 | -48.82896 | 30664 ft | 437 kts | 168° |
| 2026-05-04 20:02 | -18.12538 | -48.81968 | 31109 ft | 434 kts | 168° |
| 2026-05-04 20:02 | -18.15423 | -48.81041 | 31476 ft | 433 kts | 168° |
| 2026-05-04 20:02 | -18.18269 | -48.80128 | 31806 ft | 433 kts | 168° |
| 2026-05-04 20:03 | -18.21152 | -48.79202 | 32029 ft | 435 kts | 168° |
| 2026-05-04 20:03 | -18.26956 | -48.77339 | 32021 ft | 434 kts | 168° |
| 2026-05-04 20:04 | -18.32697 | -48.75490 | 32051 ft | 432 kts | 168° |
| 2026-05-04 20:04 | -18.38442 | -48.73641 | 32042 ft | 432 kts | 168° |
| 2026-05-04 20:05 | -18.44160 | -48.71800 | 32044 ft | 433 kts | 168° |
| 2026-05-04 20:05 | -18.49927 | -48.69941 | 32050 ft | 433 kts | 168° |
| 2026-05-04 20:06 | -18.55697 | -48.68079 | 32057 ft | 434 kts | 168° |
| 2026-05-04 20:06 | -18.61473 | -48.66215 | 32054 ft | 435 kts | 168° |
| 2026-05-04 20:07 | -18.67218 | -48.64359 | 32048 ft | 435 kts | 168° |
| 2026-05-04 20:07 | -18.73557 | -48.62309 | 32055 ft | 435 kts | 168° |
| 2026-05-04 20:08 | -18.83571 | -48.59068 | 32064 ft | 435 kts | 168° |
| 2026-05-04 20:08 | -18.89314 | -48.57208 | 32068 ft | 435 kts | 168° |
| 2026-05-04 20:09 | -18.95100 | -48.55332 | 32075 ft | 435 kts | 168° |
| 2026-05-04 20:09 | -19.00879 | -48.53457 | 32048 ft | 434 kts | 168° |
| 2026-05-04 20:10 | -19.06648 | -48.51584 | 32058 ft | 433 kts | 168° |
| 2026-05-04 20:10 | -19.12373 | -48.49724 | 32045 ft | 433 kts | 168° |
| 2026-05-04 20:11 | -19.18119 | -48.47855 | 32047 ft | 432 kts | 168° |
| 2026-05-04 20:11 | -19.23863 | -48.45986 | 32052 ft | 431 kts | 168° |
| 2026-05-04 20:12 | -19.29599 | -48.44119 | 32052 ft | 431 kts | 168° |
| 2026-05-04 20:12 | -19.35296 | -48.42263 | 32046 ft | 431 kts | 168° |
| 2026-05-04 20:13 | -19.41026 | -48.40394 | 32049 ft | 431 kts | 168° |
| 2026-05-04 20:13 | -19.46750 | -48.38526 | 32048 ft | 431 kts | 168° |
| 2026-05-04 20:14 | -19.52355 | -48.36689 | 31939 ft | 412 kts | 168° |
| 2026-05-04 20:14 | -19.55075 | -48.35797 | 31668 ft | 405 kts | 168° |
| 2026-05-04 20:14 | -19.57724 | -48.34930 | 31316 ft | 401 kts | 168° |
| 2026-05-04 20:14 | -19.60381 | -48.34063 | 30975 ft | 398 kts | 168° |
| 2026-05-04 20:15 | -19.63017 | -48.33202 | 30613 ft | 396 kts | 168° |
| 2026-05-04 20:15 | -19.65639 | -48.32346 | 30252 ft | 393 kts | 168° |
| 2026-05-04 20:15 | -19.68243 | -48.31495 | 29858 ft | 391 kts | 168° |
| 2026-05-04 20:15 | -19.70834 | -48.30647 | 29469 ft | 388 kts | 168° |
| 2026-05-04 20:16 | -19.73405 | -48.29806 | 29072 ft | 385 kts | 168° |
| 2026-05-04 20:16 | -19.75954 | -48.28970 | 28692 ft | 382 kts | 168° |
| 2026-05-04 20:16 | -19.78484 | -48.28141 | 28322 ft | 379 kts | 168° |
| 2026-05-04 20:16 | -19.80993 | -48.27318 | 27947 ft | 376 kts | 168° |
| 2026-05-04 20:17 | -19.83451 | -48.26512 | 27600 ft | 373 kts | 168° |
| 2026-05-04 20:17 | -19.85924 | -48.25701 | 27226 ft | 371 kts | 168° |
| 2026-05-04 20:17 | -19.88382 | -48.24895 | 26867 ft | 368 kts | 168° |
| 2026-05-04 20:17 | -19.90813 | -48.24097 | 26510 ft | 366 kts | 168° |
| 2026-05-04 20:18 | -19.93236 | -48.23301 | 26147 ft | 363 kts | 168° |
| 2026-05-04 20:18 | -19.95643 | -48.22511 | 25806 ft | 361 kts | 168° |
| 2026-05-04 20:18 | -19.98039 | -48.21724 | 25446 ft | 359 kts | 168° |
| 2026-05-04 20:18 | -20.00425 | -48.20940 | 25086 ft | 358 kts | 168° |
| 2026-05-04 20:19 | -20.02769 | -48.20170 | 24720 ft | 357 kts | 168° |
| 2026-05-04 20:19 | -20.05132 | -48.19393 | 24369 ft | 356 kts | 168° |
| 2026-05-04 20:19 | -20.07492 | -48.18617 | 24003 ft | 355 kts | 167° |
| 2026-05-04 20:19 | -20.09848 | -48.17842 | 23654 ft | 353 kts | 167° |
| 2026-05-04 20:20 | -20.12194 | -48.17070 | 23248 ft | 352 kts | 167° |
| 2026-05-04 20:20 | -20.14526 | -48.16301 | 22873 ft | 350 kts | 167° |
| 2026-05-04 20:20 | -20.16845 | -48.15537 | 22509 ft | 347 kts | 167° |
| 2026-05-04 20:20 | -20.19147 | -48.14778 | 22163 ft | 345 kts | 167° |
| 2026-05-04 20:21 | -20.21404 | -48.14034 | 21824 ft | 343 kts | 167° |
| 2026-05-04 20:21 | -20.23679 | -48.13284 | 21472 ft | 341 kts | 167° |
| 2026-05-04 20:21 | -20.28190 | -48.11796 | 20802 ft | 338 kts | 167° |
| 2026-05-04 20:22 | -20.30432 | -48.11056 | 20455 ft | 337 kts | 167° |
| 2026-05-04 20:22 | -20.32667 | -48.10319 | 20121 ft | 336 kts | 166° |
| 2026-05-04 20:22 | -20.34894 | -48.09583 | 19781 ft | 335 kts | 166° |
| 2026-05-04 20:22 | -20.37123 | -48.08848 | 19436 ft | 335 kts | 166° |
| 2026-05-04 20:23 | -20.39318 | -48.08122 | 19097 ft | 335 kts | 166° |
| 2026-05-04 20:23 | -20.41542 | -48.07387 | 18756 ft | 335 kts | 166° |
| 2026-05-04 20:23 | -20.43769 | -48.06651 | 18404 ft | 335 kts | 166° |
| 2026-05-04 20:23 | -20.45996 | -48.05915 | 18032 ft | 335 kts | 166° |
| 2026-05-04 20:24 | -20.48213 | -48.05181 | 17662 ft | 334 kts | 166° |
| 2026-05-04 20:24 | -20.50426 | -48.04448 | 17332 ft | 332 kts | 166° |
| 2026-05-04 20:24 | -20.52626 | -48.03719 | 16993 ft | 330 kts | 165° |
| 2026-05-04 20:24 | -20.54813 | -48.02996 | 16663 ft | 328 kts | 165° |
| 2026-05-04 20:25 | -20.57006 | -48.02323 | 16241 ft | 329 kts | 168° |
| 2026-05-04 20:25 | -20.59200 | -48.01735 | 15891 ft | 329 kts | 169° |
| 2026-05-04 20:25 | -20.61417 | -48.01166 | 15549 ft | 328 kts | 169° |
| 2026-05-04 20:25 | -20.63635 | -48.00600 | 15212 ft | 326 kts | 169° |
| 2026-05-04 20:26 | -20.65837 | -48.00034 | 14878 ft | 325 kts | 168° |
| 2026-05-04 20:26 | -20.68035 | -47.99465 | 14551 ft | 324 kts | 168° |
| 2026-05-04 20:26 | -20.70223 | -47.98895 | 14222 ft | 323 kts | 168° |
| 2026-05-04 20:26 | -20.72407 | -47.98324 | 13886 ft | 323 kts | 168° |
| 2026-05-04 20:27 | -20.74588 | -47.97751 | 13523 ft | 321 kts | 168° |
| 2026-05-04 20:27 | -20.76729 | -47.97188 | 13160 ft | 313 kts | 167° |
| 2026-05-04 20:27 | -20.78779 | -47.96648 | 12841 ft | 304 kts | 167° |
| 2026-05-04 20:27 | -20.80810 | -47.96112 | 12536 ft | 296 kts | 167° |
| 2026-05-04 20:28 | -20.82777 | -47.95593 | 12230 ft | 288 kts | 167° |
| 2026-05-04 20:28 | -20.84704 | -47.95085 | 11944 ft | 284 kts | 167° |
| 2026-05-04 20:28 | -20.86617 | -47.94581 | 11664 ft | 282 kts | 167° |
| 2026-05-04 20:28 | -20.88554 | -47.94154 | 11184 ft | 288 kts | 173° |
| 2026-05-04 20:29 | -20.90550 | -47.93944 | 10769 ft | 286 kts | 175° |
| 2026-05-04 20:29 | -20.92493 | -47.93760 | 10592 ft | 275 kts | 174° |
| 2026-05-04 20:29 | -20.94331 | -47.93571 | 10412 ft | 264 kts | 173° |
| 2026-05-04 20:29 | -20.96128 | -47.93378 | 10216 ft | 255 kts | 173° |
| 2026-05-04 20:30 | -20.97868 | -47.93186 | 9956 ft | 249 kts | 173° |
| 2026-05-04 20:30 | -20.99593 | -47.92995 | 9556 ft | 249 kts | 175° |
| 2026-05-04 20:30 | -21.01292 | -47.93260 | 9122 ft | 250 kts | 206° |
| 2026-05-04 20:30 | -21.02611 | -47.94437 | 8724 ft | 248 kts | 238° |
| 2026-05-04 20:31 | -21.03190 | -47.96134 | 8329 ft | 244 kts | 268° |
| 2026-05-04 20:31 | -21.02913 | -47.97888 | 7956 ft | 238 kts | 298° |
| 2026-05-04 20:31 | -21.01897 | -47.99240 | 7583 ft | 233 kts | 325° |
| 2026-05-04 20:31 | -21.00469 | -47.99967 | 7234 ft | 232 kts | 348° |
| 2026-05-04 20:32 | -20.98878 | -48.00214 | 7030 ft | 230 kts | 354° |
| 2026-05-04 20:32 | -20.97297 | -48.00410 | 6799 ft | 228 kts | 354° |
| 2026-05-04 20:32 | -20.95721 | -48.00609 | 6565 ft | 228 kts | 353° |
| 2026-05-04 20:32 | -20.94151 | -48.00810 | 6342 ft | 227 kts | 353° |
| 2026-05-04 20:33 | -20.92585 | -48.00881 | 6068 ft | 226 kts | 12° |
| 2026-05-04 20:33 | -20.91171 | -48.00168 | 5801 ft | 227 kts | 39° |
| 2026-05-04 20:33 | -20.90208 | -47.98849 | 5542 ft | 229 kts | 65° |
| 2026-05-04 20:33 | -20.89917 | -47.97208 | 5298 ft | 231 kts | 93° |
| 2026-05-04 20:34 | -20.90392 | -47.95576 | 5077 ft | 234 kts | 122° |
| 2026-05-04 20:34 | -20.91555 | -47.94370 | 5046 ft | 236 kts | 149° |
| 2026-05-04 20:34 | -20.93105 | -47.93823 | 5016 ft | 237 kts | 172° |
| 2026-05-04 20:34 | -20.94738 | -47.93610 | 4998 ft | 236 kts | 173° |
| 2026-05-04 20:35 | -20.96368 | -47.93403 | 4999 ft | 237 kts | 173° |
| 2026-05-04 20:35 | -20.97458 | -47.93263 | 5010 ft | 238 kts | 173° |
| 2026-05-04 20:35 | -20.99103 | -47.93051 | 4994 ft | 238 kts | 173° |
| 2026-05-04 20:35 | -21.01127 | -47.92205 | 4823 ft | 234 kts | 129° |
| 2026-05-04 20:36 | -21.01738 | -47.90705 | 4749 ft | 214 kts | 88° |
| 2026-05-04 20:36 | -21.01322 | -47.89275 | 4352 ft | 207 kts | 50° |
| 2026-05-04 20:36 | -21.00390 | -47.88106 | 3909 ft | 208 kts | 51° |
| 2026-05-04 20:36 | -20.99850 | -47.87291 | 3843 ft | 196 kts | 55° |
| 2026-05-04 20:37 | -20.99181 | -47.86084 | 3799 ft | 185 kts | 60° |
| 2026-05-04 20:37 | -20.98632 | -47.84826 | 3778 ft | 189 kts | 66° |
| 2026-05-04 20:37 | -20.98163 | -47.83546 | 3810 ft | 180 kts | 66° |
| 2026-05-04 20:37 | -20.98089 | -47.82261 | 3702 ft | 178 kts | 115° |
| 2026-05-04 20:38 | -20.99027 | -47.81399 | 3653 ft | 187 kts | 166° |
| 2026-05-04 20:38 | -21.00282 | -47.81199 | 3604 ft | 180 kts | 171° |
| 2026-05-04 20:38 | -21.01476 | -47.80954 | 3505 ft | 172 kts | 167° |
| 2026-05-04 20:38 | -21.02627 | -47.80665 | 3487 ft | 168 kts | 166° |
| 2026-05-04 20:39 | -21.03770 | -47.80345 | 3469 ft | 172 kts | 164° |
| 2026-05-04 20:39 | -21.04906 | -47.80024 | 3438 ft | 171 kts | 163° |
| 2026-05-04 20:39 | -21.06080 | -47.79682 | 3209 ft | 176 kts | 163° |
| 2026-05-04 20:39 | -21.07239 | -47.79341 | 2974 ft | 169 kts | 165° |
| 2026-05-04 20:40 | -21.08348 | -47.79023 | 2776 ft | 163 kts | 163° |
| 2026-05-04 20:40 | -21.09450 | -47.78676 | 2592 ft | 166 kts | 161° |
| 2026-05-04 20:40 | -21.10910 | -47.78207 | 2161 ft | 166 kts | 161° |
| 2026-05-04 20:40 | -21.11643 | -47.77980 | 1998 ft | 158 kts | 161° |
| 2026-05-04 20:41 | -21.12653 | -47.77655 | 1841 ft | 144 kts | 160° |
| 2026-05-04 20:41 | -21.13494 | -47.77381 | 1826 ft | 103 kts | 163° |
| 2026-05-04 20:41 | -21.13979 | -47.77224 | 1825 ft | 48 kts | 163° |
| 2026-05-04 20:41 | -21.14146 | -47.77173 | 1826 ft | 16 kts | 163° |
| 2026-05-04 20:42 | -21.14249 | -47.77139 | 1825 ft | 15 kts | 165° |
| 2026-05-04 20:42 | -21.14298 | -47.77202 | 1825 ft | 14 kts | 283° |
| 2026-05-04 20:42 | -21.14292 | -47.77230 | 1825 ft | 0 kts | 283° |
| 2026-05-04 20:42 | -21.14291 | -47.77236 | 1825 ft | 5 kts | 283° |
| 2026-05-04 20:43 | -21.14271 | -47.77290 | 1825 ft | 9 kts | 304° |
| 2026-05-04 20:43 | -21.14223 | -47.77326 | 1825 ft | 8 kts | 336° |
| 2026-05-04 20:43 | -21.14168 | -47.77342 | 1825 ft | 8 kts | 342° |
| 2026-05-04 20:43 | -21.14115 | -47.77360 | 1825 ft | 8 kts | 343° |
| 2026-05-04 20:44 | -21.14063 | -47.77377 | 1825 ft | 8 kts | 343° |
| 2026-05-04 20:44 | -21.14012 | -47.77393 | 1826 ft | 7 kts | 343° |
| 2026-05-04 20:44 | -21.13964 | -47.77408 | 1826 ft | 7 kts | 344° |
| 2026-05-04 20:44 | -21.13918 | -47.77424 | 1825 ft | 7 kts | 341° |
| 2026-05-04 20:45 | -21.13873 | -47.77441 | 1825 ft | 7 kts | 334° |
| 2026-05-04 20:45 | -21.13853 | -47.77469 | 1825 ft | 4 kts | 259° |
| 2026-05-04 20:45 | -21.13859 | -47.77495 | 1825 ft | 4 kts | 256° |
| 2026-05-04 20:45 | -21.13864 | -47.77522 | 1825 ft | 4 kts | 260° |
| 2026-05-04 20:46 | -21.13869 | -47.77547 | 1825 ft | 3 kts | 260° |
| 2026-05-04 20:46 | -21.13875 | -47.77570 | 1825 ft | 3 kts | 251° |
| 2026-05-04 20:46 | -21.13880 | -47.77591 | 1825 ft | 2 kts | 254° |
| 2026-05-04 20:46 | -21.13882 | -47.77597 | 1825 ft | 0 kts | 253° |